ADDS METAR Data

Data at: 0508 UTC 20 Apr 2018

METAR for:KPWM (Portland Intl, ME, US)
Text:KPWM 200451Z AUTO 31005KT 10SM SCT110 04/M01 A2978 RMK AO2 SLP084 T00391011 400890033
Temperature: 3.9°C ( 39°F)
Dewpoint: -1.1°C ( 30°F) [RH = 70%]
Pressure (altimeter):29.78 inches Hg (1008.5 mb) [Sea level pressure: 1008.4 mb]
Winds:from the NW (310 degrees) at 6 MPH (5 knots; 2.6 m/s)
Visibility:10 or more sm (16+ km)
Ceiling:at least 12,000 feet AGL
Clouds: scattered clouds at 11000 feet AGL
QC Flag:automated observation with no human augmentation